Curitiba — 3FIP4 — position and weather

sailwx.info

Track history (hours):
 
Tides and Currents Weather Stations Pressure Air Temp Water Temp Dewpoint Dewpoint Depression Visibility Wind Speed Wind Dir Waves Ship Positions

Curitiba

Last reported at 2018-Sep-05 16:49 UTC. Time now 2018-Sep-21 01:49 UTC.
Position N 31°06' E 122°58'.
Warning: this ship's position is 15 days out of date.

Length 180 m; draft 7.8 m.

Type: Cargo ship. MMSI: 353566721.

Date/timePositionNaut miles runAvg speedWind from/ knotsBaromVisibWave heightAir tempDewpointWater temp
2018-Sep-05 16:49N 31°06' E 122°58'2015.1
2018-Sep-05 15:29N 31°05' E 122°35'810.6
2018-Sep-05 14:42N 31°05' E 122°25'312.6
2018-Sep-05 14:30N 31°05' E 122°22'713.6
2018-Sep-05 14:00N 31°08' E 122°15'814.7
2018-Sep-05 13:29N 31°13' E 122°08'614.4
2018-Sep-05 13:03N 31°15' E 122°01'113.6
2018-Sep-05 13:00N 31°15' E 122°00'713.8
2018-Sep-05 12:30N 31°16' E 121°52'10 0.8
2018-Sep-04 23:16N 31°20' E 121°41'0 1.6
2018-Sep-04 23:03N 31°20' E 121°41'0 5.2
2018-Sep-04 23:00N 31°20' E 121°41'1211.2
2018-Sep-04 21:56N 31°16' E 121°54'613.8
2018-Sep-04 21:28N 31°15' E 122°02'1014.2
2018-Sep-04 20:46N 31°10' E 122°12'1 3.8
2018-Sep-04 20:23N 31°09' E 122°13'2 6.8
2018-Sep-04 20:04N 31°08' E 122°15'1 9.2
2018-Sep-04 20:00N 31°08' E 122°16'4 7.8
2018-Sep-04 19:31N 31°06' E 122°20'3 7.2
2018-Sep-04 19:03N 31°06' E 122°24'1 6.9
2018-Sep-04 18:56N 31°06' E 122°25'3 6.9
2018-Sep-04 18:30N 31°07' E 122°28'  
2018-Aug-28 20:21N 34°52' E 139°39'715.2
2018-Aug-28 19:55N 34°58' E 139°39'512.4
2018-Aug-28 19:30N 35°03' E 139°41'612.8
2018-Aug-28 19:03N 35°08' E 139°44'112.5
2018-Aug-28 19:00N 35°09' E 139°44'510.8
2018-Aug-28 18:30N 35°14' E 139°46'511.4
2018-Aug-28 18:03N 35°19' E 139°43'112.9
2018-Aug-28 18:00N 35°19' E 139°43'611.9
2018-Aug-28 17:30N 35°25' E 139°43'3 5.2
2018-Aug-28 17:01N 35°27' E 139°41'0 1.2
2018-Aug-28 16:58N 35°27' E 139°41'0 0.0
2018-Aug-28 16:28N 35°27' E 139°41'0 0.0
2018-Aug-28 16:01N 35°27' E 139°41'0 0.1
2018-Aug-28 15:58N 35°27' E 139°41'0 0.0
2018-Aug-28 15:28N 35°27' E 139°41'0 0.0
2018-Aug-28 15:01N 35°27' E 139°41'0 0.0
2018-Aug-28 14:58N 35°27' E 139°41'0 0.0
2018-Aug-28 14:28N 35°27' E 139°41'0 0.0
2018-Aug-28 13:28N 35°27' E 139°41'0 0.0
2018-Aug-28 13:01N 35°27' E 139°41'0 0.1
2018-Aug-28 12:58N 35°27' E 139°41'0 0.0
2018-Aug-28 12:25N 35°27' E 139°41'0 0.0
2018-Aug-28 12:01N 35°27' E 139°41'0 0.1
2018-Aug-28 11:58N 35°27' E 139°41'0 0.0
2018-Aug-28 11:28N 35°27' E 139°41'0 0.0
2018-Aug-28 11:01N 35°27' E 139°41'0 0.0
2018-Aug-28 10:58N 35°27' E 139°41'0 0.0
2018-Aug-28 10:28N 35°27' E 139°41'0 0.0
2018-Aug-28 10:01N 35°27' E 139°41'0 0.0
2018-Aug-28 09:58N 35°27' E 139°41'0 0.0
2018-Aug-28 09:28N 35°27' E 139°41'0 0.0
2018-Aug-28 09:01N 35°27' E 139°41'0 0.0
2018-Aug-28 08:58N 35°27' E 139°41'0 0.0
2018-Aug-28 08:28N 35°27' E 139°41'0 0.0
2018-Aug-28 08:01N 35°27' E 139°41'0 0.1
2018-Aug-28 07:58N 35°27' E 139°41'0 0.0
2018-Aug-28 07:28N 35°27' E 139°41'0 0.0
2018-Aug-28 07:01N 35°27' E 139°41'0 0.0
2018-Aug-28 06:58N 35°27' E 139°41'0 0.0
2018-Aug-28 06:28N 35°27' E 139°41'0 0.0
2018-Aug-28 06:01N 35°27' E 139°41'0 0.0
2018-Aug-28 05:58N 35°27' E 139°41'0 0.0
2018-Aug-28 05:28N 35°27' E 139°41'0 0.0
2018-Aug-28 05:01N 35°27' E 139°41'0 0.0
2018-Aug-28 04:58N 35°27' E 139°41'0 0.0
2018-Aug-28 04:28N 35°27' E 139°41'0 0.0
2018-Aug-28 04:01N 35°27' E 139°41'0 0.1
2018-Aug-28 03:58N 35°27' E 139°41'0 0.0
2018-Aug-28 03:30N 35°27' E 139°41'0 0.7
2018-Aug-28 03:03N 35°27' E 139°41'0 2.7
2018-Aug-28 03:00N 35°27' E 139°41'2 4.4
2018-Aug-28 02:30N 35°26' E 139°43'0 0.4
2018-Aug-28 02:02N 35°26' E 139°44'0 0.2
2018-Aug-28 01:59N 35°26' E 139°44'0 0.0
2018-Aug-28 01:26N 35°26' E 139°44'0 0.0
2018-Aug-28 01:02N 35°26' E 139°44'0 0.1
2018-Aug-28 00:59N 35°26' E 139°44'0 0.1
2018-Aug-28 00:29N 35°26' E 139°44'0 0.9
2018-Aug-28 00:03N 35°25' E 139°44'0 4.0
2018-Aug-28 00:00N 35°25' E 139°44'4 7.4
2018-Aug-27 23:30N 35°21' E 139°43'510.7
2018-Aug-27 23:03N 35°17' E 139°46'111.9
2018-Aug-27 23:00N 35°17' E 139°46'510.3
2018-Aug-27 22:30N 35°11' E 139°47'4 8.4
2018-Aug-27 22:03N 35°08' E 139°47'110.4
2018-Aug-27 22:00N 35°07' E 139°46'510.0
2018-Aug-27 21:30N 35°03' E 139°44'4 9.1
2018-Aug-27 21:02N 34°59' E 139°42'010.7
2018-Aug-27 21:00N 34°58' E 139°41'4 8.3
2018-Aug-27 20:30N 34°54' E 139°41'613.5
2018-Aug-27 20:03N 34°48' E 139°41'114.6
2018-Aug-27 20:00N 34°48' E 139°40'815.1
2018-Aug-27 19:30N 34°41' E 139°37'  
Track history (hours):
 
Tides and Currents Weather Stations Pressure Air Temp Water Temp Dewpoint Dewpoint Depression Visibility Wind Speed Wind Dir Waves Ship Positions

Curitiba

Last reported at 2018-Sep-05 16:49 UTC. Time now 2018-Sep-21 01:49 UTC.
Position N 31°06' E 122°58'.
Warning: this ship's position is 15 days out of date.

Length 180 m; draft 7.8 m.

Type: Cargo ship. MMSI: 353566721.

Date/timePositionNaut miles runAvg speedWind from/ knotsBaromVisibWave heightAir tempDewpointWater temp
2018-Sep-05 16:49N 31°06' E 122°58'2015.1
2018-Sep-05 15:29N 31°05' E 122°35'810.6
2018-Sep-05 14:42N 31°05' E 122°25'312.6
2018-Sep-05 14:30N 31°05' E 122°22'713.6
2018-Sep-05 14:00N 31°08' E 122°15'814.7
2018-Sep-05 13:29N 31°13' E 122°08'614.4
2018-Sep-05 13:03N 31°15' E 122°01'113.6
2018-Sep-05 13:00N 31°15' E 122°00'713.8
2018-Sep-05 12:30N 31°16' E 121°52'10 0.8
2018-Sep-04 23:16N 31°20' E 121°41'0 1.6
2018-Sep-04 23:03N 31°20' E 121°41'0 5.2
2018-Sep-04 23:00N 31°20' E 121°41'1211.2
2018-Sep-04 21:56N 31°16' E 121°54'613.8
2018-Sep-04 21:28N 31°15' E 122°02'1014.2
2018-Sep-04 20:46N 31°10' E 122°12'1 3.8
2018-Sep-04 20:23N 31°09' E 122°13'2 6.8
2018-Sep-04 20:04N 31°08' E 122°15'1 9.2
2018-Sep-04 20:00N 31°08' E 122°16'4 7.8
2018-Sep-04 19:31N 31°06' E 122°20'3 7.2
2018-Sep-04 19:03N 31°06' E 122°24'1 6.9
2018-Sep-04 18:56N 31°06' E 122°25'3 6.9
2018-Sep-04 18:30N 31°07' E 122°28'  
2018-Aug-28 20:21N 34°52' E 139°39'715.2
2018-Aug-28 19:55N 34°58' E 139°39'512.4
2018-Aug-28 19:30N 35°03' E 139°41'612.8
2018-Aug-28 19:03N 35°08' E 139°44'112.5
2018-Aug-28 19:00N 35°09' E 139°44'510.8
2018-Aug-28 18:30N 35°14' E 139°46'511.4
2018-Aug-28 18:03N 35°19' E 139°43'112.9
2018-Aug-28 18:00N 35°19' E 139°43'611.9
2018-Aug-28 17:30N 35°25' E 139°43'3 5.2
2018-Aug-28 17:01N 35°27' E 139°41'0 1.2
2018-Aug-28 16:58N 35°27' E 139°41'0 0.0
2018-Aug-28 16:28N 35°27' E 139°41'0 0.0
2018-Aug-28 16:01N 35°27' E 139°41'0 0.1
2018-Aug-28 15:58N 35°27' E 139°41'0 0.0
2018-Aug-28 15:28N 35°27' E 139°41'0 0.0
2018-Aug-28 15:01N 35°27' E 139°41'0 0.0
2018-Aug-28 14:58N 35°27' E 139°41'0 0.0
2018-Aug-28 14:28N 35°27' E 139°41'0 0.0
2018-Aug-28 13:28N 35°27' E 139°41'0 0.0
2018-Aug-28 13:01N 35°27' E 139°41'0 0.1
2018-Aug-28 12:58N 35°27' E 139°41'0 0.0
2018-Aug-28 12:25N 35°27' E 139°41'0 0.0
2018-Aug-28 12:01N 35°27' E 139°41'0 0.1
2018-Aug-28 11:58N 35°27' E 139°41'0 0.0
2018-Aug-28 11:28N 35°27' E 139°41'0 0.0
2018-Aug-28 11:01N 35°27' E 139°41'0 0.0
2018-Aug-28 10:58N 35°27' E 139°41'0 0.0
2018-Aug-28 10:28N 35°27' E 139°41'0 0.0
2018-Aug-28 10:01N 35°27' E 139°41'0 0.0
2018-Aug-28 09:58N 35°27' E 139°41'0 0.0
2018-Aug-28 09:28N 35°27' E 139°41'0 0.0
2018-Aug-28 09:01N 35°27' E 139°41'0 0.0
2018-Aug-28 08:58N 35°27' E 139°41'0 0.0
2018-Aug-28 08:28N 35°27' E 139°41'0 0.0
2018-Aug-28 08:01N 35°27' E 139°41'0 0.1
2018-Aug-28 07:58N 35°27' E 139°41'0 0.0
2018-Aug-28 07:28N 35°27' E 139°41'0 0.0
2018-Aug-28 07:01N 35°27' E 139°41'0 0.0
2018-Aug-28 06:58N 35°27' E 139°41'0 0.0
2018-Aug-28 06:28N 35°27' E 139°41'0 0.0
2018-Aug-28 06:01N 35°27' E 139°41'0 0.0
2018-Aug-28 05:58N 35°27' E 139°41'0 0.0
2018-Aug-28 05:28N 35°27' E 139°41'0 0.0
2018-Aug-28 05:01N 35°27' E 139°41'0 0.0
2018-Aug-28 04:58N 35°27' E 139°41'0 0.0
2018-Aug-28 04:28N 35°27' E 139°41'0 0.0
2018-Aug-28 04:01N 35°27' E 139°41'0 0.1
2018-Aug-28 03:58N 35°27' E 139°41'0 0.0
2018-Aug-28 03:30N 35°27' E 139°41'0 0.7
2018-Aug-28 03:03N 35°27' E 139°41'0 2.7
2018-Aug-28 03:00N 35°27' E 139°41'2 4.4
2018-Aug-28 02:30N 35°26' E 139°43'0 0.4
2018-Aug-28 02:02N 35°26' E 139°44'0 0.2
2018-Aug-28 01:59N 35°26' E 139°44'0 0.0
2018-Aug-28 01:26N 35°26' E 139°44'0 0.0
2018-Aug-28 01:02N 35°26' E 139°44'0 0.1
2018-Aug-28 00:59N 35°26' E 139°44'0 0.1
2018-Aug-28 00:29N 35°26' E 139°44'0 0.9
2018-Aug-28 00:03N 35°25' E 139°44'0 4.0
2018-Aug-28 00:00N 35°25' E 139°44'4 7.4
2018-Aug-27 23:30N 35°21' E 139°43'510.7
2018-Aug-27 23:03N 35°17' E 139°46'111.9
2018-Aug-27 23:00N 35°17' E 139°46'510.3
2018-Aug-27 22:30N 35°11' E 139°47'4 8.4
2018-Aug-27 22:03N 35°08' E 139°47'110.4
2018-Aug-27 22:00N 35°07' E 139°46'510.0
2018-Aug-27 21:30N 35°03' E 139°44'4 9.1
2018-Aug-27 21:02N 34°59' E 139°42'010.7
2018-Aug-27 21:00N 34°58' E 139°41'4 8.3
2018-Aug-27 20:30N 34°54' E 139°41'613.5
2018-Aug-27 20:03N 34°48' E 139°41'114.6
2018-Aug-27 20:00N 34°48' E 139°40'815.1
2018-Aug-27 19:30N 34°41' E 139°37'  

Dump ship's entire track history